Time;durP1;ratioP1;P1;durP2;ratioP2;P2;SDS_P1;SDS_P2;PMS_P1;PMS_P2;Temp;Humidity;BMP_temperature;BMP_pressure;BME280_temperature;BME280_humidity;BME280_pressure;Samples;Min_cycle;Max_cycle;Signal;HPM_P1;HPM_P2
2023/08/08 00:01:12;;;;;;;5.07;2.05;;;;;;;11.69;100.00;100300.13;6115048;29;20481;-91
2023/08/08 00:04:14;;;;;;;5.03;2.13;;;;;;;11.73;100.00;100304.91;6124115;28;20036;-91
2023/08/08 00:07:16;;;;;;;4.70;2.47;;;;;;;11.71;100.00;100301.63;6124416;29;20075;-92
2023/08/08 00:10:18;;;;;;;4.38;2.30;;;;;;;11.74;100.00;100292.75;6103942;29;20516;-92
2023/08/08 00:13:20;;;;;;;6.43;2.00;;;;;;;11.69;100.00;100300.94;6108145;29;20051;-92
2023/08/08 00:16:22;;;;;;;3.75;2.45;;;;;;;11.69;100.00;100297.53;6117296;29;20102;-93
2023/08/08 00:19:25;;;;;;;3.28;2.10;;;;;;;11.71;100.00;100291.25;6116255;29;20075;-92
2023/08/08 00:22:27;;;;;;;4.40;2.20;;;;;;;11.61;100.00;100285.25;6116435;29;20371;-92
2023/08/08 00:25:30;;;;;;;6.43;2.40;;;;;;;11.77;100.00;100289.91;6111739;29;20130;-92
2023/08/08 00:28:31;;;;;;;6.03;2.30;;;;;;;11.84;100.00;100288.41;6109301;29;20573;-92
2023/08/08 00:31:34;;;;;;;3.55;2.30;;;;;;;11.76;100.00;100291.69;6105886;29;20109;-93
2023/08/08 00:34:36;;;;;;;3.15;2.15;;;;;;;11.81;100.00;100278.31;6119329;28;20410;-93
2023/08/08 00:37:38;;;;;;;3.33;2.05;;;;;;;11.87;100.00;100269.19;6119246;29;20040;-92
2023/08/08 00:40:40;;;;;;;3.45;1.90;;;;;;;11.84;100.00;100267.66;6113970;29;20055;-92
2023/08/08 00:43:43;;;;;;;4.25;1.98;;;;;;;11.76;100.00;100265.75;6120075;29;20684;-92
2023/08/08 00:46:46;;;;;;;2.38;2.00;;;;;;;11.75;100.00;100258.09;6126346;29;20730;-92
2023/08/08 00:49:48;;;;;;;3.38;2.05;;;;;;;11.80;100.00;100261.09;6118000;29;20052;-94
2023/08/08 00:52:53;;;;;;;2.75;1.98;;;;;;;11.69;100.00;100253.47;6127022;29;20126;-93
2023/08/08 00:55:55;;;;;;;4.30;2.17;;;;;;;11.69;100.00;100259.47;6123666;29;20043;-92
2023/08/08 00:58:57;;;;;;;6.47;2.55;;;;;;;11.69;100.00;100250.88;6125563;29;20046;-93
2023/08/08 01:01:59;;;;;;;4.22;2.05;;;;;;;11.73;100.00;100254.84;6134899;28;20055;-93
2023/08/08 01:05:03;;;;;;;4.47;2.20;;;;;;;11.74;100.00;100249.50;6110556;29;20056;-92
2023/08/08 01:08:07;;;;;;;3.85;2.20;;;;;;;11.84;100.00;100258.09;6109536;29;20044;-92
2023/08/08 01:11:09;;;;;;;4.13;2.28;;;;;;;11.76;100.00;100249.38;6119647;28;20195;-92
2023/08/08 01:14:11;;;;;;;3.17;2.00;;;;;;;11.77;100.00;100248.41;6127842;29;20130;-93
2023/08/08 01:17:15;;;;;;;3.58;1.83;;;;;;;11.74;100.00;100252.09;6115419;29;20044;-92
2023/08/08 01:20:18;;;;;;;3.25;2.10;;;;;;;11.71;100.00;100244.59;6119712;29;20047;-93
2023/08/08 01:23:32;;;;;;;2.95;2.35;;;;;;;11.60;100.00;100235.19;6118095;29;20103;-93
2023/08/08 01:26:35;;;;;;;3.78;1.90;;;;;;;11.56;100.00;100238.97;6118309;29;20048;-92
2023/08/08 01:29:39;;;;;;;2.28;1.92;;;;;;;11.55;100.00;100231.31;6122306;29;20398;-92
2023/08/08 01:32:41;;;;;;;2.50;1.98;;;;;;;11.59;100.00;100243.06;6116007;29;20040;-91
2023/08/08 01:35:47;;;;;;;7.25;2.42;;;;;;;11.59;100.00;100236.09;6118133;29;20446;-92
2023/08/08 01:38:52;;;;;;;2.55;2.00;;;;;;;11.64;100.00;100238.31;6118419;29;20051;-93
2023/08/08 01:41:56;;;;;;;3.50;2.30;;;;;;;11.54;100.00;100230.50;6101706;29;20621;-92
2023/08/08 01:44:58;;;;;;;1.90;1.67;;;;;;;11.50;100.00;100234.34;6118224;29;20076;-92
2023/08/08 01:48:11;;;;;;;3.30;2.30;;;;;;;11.47;100.00;100223.41;6120670;29;20118;-92
2023/08/08 01:51:13;;;;;;;;;;;;;;;11.47;100.00;100224.22;6119616;29;20047;-92
2023/08/08 01:54:15;;;;;;;3.13;1.95;;;;;;;11.37;100.00;100225.97;6105807;29;19926;-93
2023/08/08 01:57:17;;;;;;;4.60;2.30;;;;;;;11.33;100.00;100217.66;6117485;29;20044;-93
2023/08/08 02:00:20;;;;;;;6.60;2.42;;;;;;;11.31;100.00;100214.38;6117746;29;20075;-93
2023/08/08 02:03:22;;;;;;;4.20;2.47;;;;;;;11.27;100.00;100218.19;6119776;29;20063;-92
2023/08/08 02:06:24;;;;;;;5.28;2.42;;;;;;;11.20;100.00;100227.44;6117166;29;20429;-92
2023/08/08 02:09:27;;;;;;;4.63;2.22;;;;;;;11.25;100.00;100222.69;6111786;29;20050;-91
2023/08/08 02:12:29;;;;;;;3.75;2.40;;;;;;;11.25;100.00;100227.88;6128346;28;20148;-92
2023/08/08 02:15:32;;;;;;;4.22;2.20;;;;;;;11.34;100.00;100213.31;6114062;29;20059;-93
2023/08/08 02:18:36;;;;;;;5.47;2.70;;;;;;;11.50;100.00;100212.78;6117003;29;20039;-92
2023/08/08 02:21:38;;;;;;;5.00;2.45;;;;;;;11.61;100.00;100202.28;6118629;29;20126;-92
2023/08/08 02:24:39;;;;;;;4.70;2.70;;;;;;;11.61;100.00;100200.50;6101060;29;20040;-91
2023/08/08 02:27:41;;;;;;;3.67;2.42;;;;;;;11.62;100.00;100198.72;6121578;29;20051;-92
2023/08/08 02:30:44;;;;;;;3.75;2.53;;;;;;;11.70;100.00;100192.84;6112995;29;20091;-93
2023/08/08 02:33:52;;;;;;;3.28;2.67;;;;;;;11.93;100.00;100193.44;6131309;28;20490;-91
2023/08/08 02:36:54;;;;;;;7.25;3.25;;;;;;;12.07;100.00;100193.84;6097464;29;20051;-92
2023/08/08 02:39:56;;;;;;;5.32;2.70;;;;;;;12.14;100.00;100191.47;6106971;29;20044;-92
2023/08/08 02:42:58;;;;;;;5.97;3.17;;;;;;;12.17;100.00;100187.78;6119456;29;20044;-91
2023/08/08 02:46:00;;;;;;;6.20;3.15;;;;;;;12.23;100.00;100190.66;6116161;29;20499;-92
2023/08/08 02:49:04;;;;;;;6.10;3.25;;;;;;;12.31;100.00;100192.53;6109434;29;20035;-92
2023/08/08 02:52:07;;;;;;;3.40;2.88;;;;;;;12.43;100.00;100191.41;6116860;29;20075;-92
2023/08/08 02:55:10;;;;;;;7.53;2.88;;;;;;;12.43;100.00;100186.22;6117970;29;20525;-92
2023/08/08 02:58:13;;;;;;;6.80;3.13;;;;;;;12.44;100.00;100180.06;6118103;29;20043;-92
2023/08/08 03:01:15;;;;;;;8.93;2.80;;;;;;;12.41;100.00;100176.94;6113898;29;20051;-92
2023/08/08 03:04:19;;;;;;;7.45;2.63;;;;;;;12.45;100.00;100178.31;6119729;29;20079;-93
2023/08/08 03:07:21;;;;;;;4.40;2.63;;;;;;;12.37;100.00;100173.81;6119969;29;20052;-93
2023/08/08 03:10:23;;;;;;;4.15;2.70;;;;;;;12.38;100.00;100170.25;6119694;28;20135;-93
2023/08/08 03:13:25;;;;;;;4.57;2.78;;;;;;;12.49;100.00;100164.88;6123905;29;20505;-92
2023/08/08 03:16:29;;;;;;;4.80;2.60;;;;;;;12.48;100.00;100170.22;6131000;29;20552;-93
2023/08/08 03:19:31;;;;;;;5.13;2.60;;;;;;;12.52;100.00;100173.34;6131472;29;20117;-93
2023/08/08 03:22:35;;;;;;;6.03;2.58;;;;;;;12.50;100.00;100174.31;6118320;29;20206;-94
2023/08/08 03:25:37;;;;;;;3.75;2.38;;;;;;;12.52;100.00;100166.41;6111401;29;20052;-92
2023/08/08 03:28:39;;;;;;;4.25;2.38;;;;;;;12.54;100.00;100166.25;6121088;29;20632;-93
2023/08/08 03:31:43;;;;;;;9.05;2.70;;;;;;;12.45;100.00;100160.94;6119140;29;20761;-92
2023/08/08 03:34:46;;;;;;;8.50;3.00;;;;;;;12.42;100.00;100163.00;6107181;29;20130;-93
2023/08/08 03:37:48;;;;;;;3.60;2.53;;;;;;;12.41;100.00;100163.97;6124919;29;20048;-92
2023/08/08 03:40:51;;;;;;;4.75;2.65;;;;;;;12.48;100.00;100163.25;6110966;29;20162;-92
2023/08/08 03:43:53;;;;;;;4.38;2.90;;;;;;;12.47;100.00;100163.38;6100887;29;20052;-93
2023/08/08 03:46:54;;;;;;;5.05;2.50;;;;;;;12.37;100.00;100170.41;6114783;29;20040;-93
2023/08/08 03:50:17;;;;;;;5.55;2.70;;;;;;;12.41;100.00;100171.75;6118301;29;20047;-93
2023/08/08 03:53:18;;;;;;;4.05;2.55;;;;;;;12.39;100.00;100169.28;6117020;29;20078;-93
2023/08/08 03:56:20;;;;;;;5.35;2.70;;;;;;;12.39;100.00;100164.09;6118829;29;20513;-92
2023/08/08 03:59:23;;;;;;;4.38;2.47;;;;;;;12.31;100.00;100163.19;6130898;28;20056;-92
2023/08/08 04:02:25;;;;;;;3.13;2.20;;;;;;;12.36;100.00;100166.16;6090393;29;20040;-93
2023/08/08 04:05:27;;;;;;;3.67;2.45;;;;;;;12.33;100.00;100167.28;6112447;29;20055;-93
2023/08/08 04:08:29;;;;;;;6.25;2.92;;;;;;;12.32;100.00;100162.22;6101398;29;20048;-92
2023/08/08 04:11:32;;;;;;;5.72;2.42;;;;;;;12.35;100.00;100156.75;6123979;29;20054;-93
2023/08/08 04:14:34;;;;;;;3.25;2.38;;;;;;;12.31;100.00;100156.22;6138400;29;20105;-93
2023/08/08 04:17:36;;;;;;;3.30;2.55;;;;;;;12.25;100.00;100161.97;6123439;29;20413;-93
2023/08/08 04:20:38;;;;;;;4.82;3.05;;;;;;;12.32;100.00;100162.22;6121571;29;20055;-93
2023/08/08 04:23:40;;;;;;;4.68;2.65;;;;;;;12.38;100.00;100167.66;6106928;29;20048;-92
2023/08/08 04:26:42;;;;;;;6.65;2.50;;;;;;;12.43;100.00;100159.47;6121562;29;20461;-91
2023/08/08 04:29:47;;;;;;;4.70;2.33;;;;;;;12.53;100.00;100164.63;6120551;29;20040;-93
2023/08/08 04:33:07;;;;;;;5.30;2.53;;;;;;;12.59;100.00;100156.25;6108963;29;20055;-93
2023/08/08 04:36:09;;;;;;;4.60;2.63;;;;;;;12.66;100.00;100154.72;6123035;29;20055;-93
2023/08/08 04:39:11;;;;;;;6.30;2.75;;;;;;;12.74;100.00;100152.19;6116331;29;20040;-93
2023/08/08 04:42:16;;;;;;;5.28;2.67;;;;;;;12.79;100.00;100149.19;6120702;29;20051;-93
2023/08/08 04:45:20;;;;;;;6.93;2.60;;;;;;;12.82;100.00;100152.31;6119903;29;20143;-93
2023/08/08 04:48:23;;;;;;;7.40;2.92;;;;;;;12.91;100.00;100151.44;6120969;29;20052;-92
2023/08/08 04:51:25;;;;;;;6.38;2.72;;;;;;;12.93;100.00;100154.69;6128694;28;20583;-93
2023/08/08 04:54:27;;;;;;;6.40;2.88;;;;;;;12.92;100.00;100150.47;6120791;29;20390;-93
2023/08/08 04:57:30;;;;;;;5.43;2.60;;;;;;;12.98;100.00;100130.88;6119429;29;20514;-93
2023/08/08 05:00:35;;;;;;;5.03;2.95;;;;;;;13.08;100.00;100134.22;6125038;29;20079;-93
2023/08/08 05:03:37;;;;;;;5.50;2.90;;;;;;;13.04;100.00;100129.47;6116446;29;20180;-94
2023/08/08 05:06:48;;;;;;;6.97;3.00;;;;;;;13.10;100.00;100126.31;6123149;29;20051;-92
2023/08/08 05:09:53;;;;;;;5.80;3.38;;;;;;;13.09;100.00;100124.66;6122745;29;20058;-92
2023/08/08 05:12:55;;;;;;;6.07;3.35;;;;;;;13.13;100.00;100120.81;6143225;28;20051;-94
2023/08/08 05:15:57;;;;;;;4.72;2.83;;;;;;;13.12;100.00;100120.00;6112292;29;20638;-92
2023/08/08 05:18:59;;;;;;;5.00;2.83;;;;;;;13.16;100.00;100120.50;6099703;29;20051;-92
2023/08/08 05:22:02;;;;;;;5.88;3.22;;;;;;;13.23;100.00;100121.53;6099145;29;20059;-93
2023/08/08 05:25:06;;;;;;;7.32;2.97;;;;;;;13.21;100.00;100113.06;6114633;29;20047;-93
2023/08/08 05:28:20;;;;;;;7.30;3.00;;;;;;;13.34;100.00;100104.94;6115121;29;20052;-93
2023/08/08 05:31:26;;;;;;;3.97;3.00;;;;;;;13.43;100.00;100111.84;6126269;29;20505;-93
2023/08/08 05:34:28;;;;;;;4.68;3.00;;;;;;;13.53;100.00;100117.78;6131410;28;20487;-94
2023/08/08 05:37:36;;;;;;;7.60;3.35;;;;;;;13.63;100.00;100111.69;6123495;29;20059;-94
2023/08/08 05:40:44;;;;;;;4.13;3.25;;;;;;;13.72;100.00;100103.78;6141450;29;20054;-94
2023/08/08 05:43:59;;;;;;;3.60;2.53;;;;;;;13.75;100.00;100100.88;6115256;28;20059;-93
2023/08/08 05:47:01;;;;;;;6.07;3.05;;;;;;;13.80;100.00;100110.81;6124175;29;20054;-93
2023/08/08 05:50:06;;;;;;;6.32;3.17;;;;;;;13.95;100.00;100117.09;6104628;29;20052;-93
2023/08/08 05:53:08;;;;;;;5.18;2.72;;;;;;;13.98;100.00;100118.56;6106371;29;20777;-93
2023/08/08 05:56:11;;;;;;;5.72;3.40;;;;;;;14.06;100.00;100123.00;6118053;29;20083;-92
2023/08/08 05:59:14;;;;;;;6.10;3.03;;;;;;;14.13;100.00;100127.44;6116684;29;20048;-93
2023/08/08 06:02:16;;;;;;;4.93;3.42;;;;;;;14.13;100.00;100124.03;6108646;29;20039;-94
2023/08/08 06:05:24;;;;;;;4.03;3.50;;;;;;;14.18;100.00;100127.81;6118778;29;20402;-93
2023/08/08 06:08:29;;;;;;;6.28;3.30;;;;;;;14.19;100.00;100134.66;6119716;29;20048;-92
2023/08/08 06:11:31;;;;;;;6.25;3.55;;;;;;;14.05;100.00;100122.19;6129344;29;20138;-94
2023/08/08 06:14:51;;;;;;;6.82;2.97;;;;;;;13.92;100.00;100132.22;6104150;29;20044;-94
2023/08/08 06:18:07;;;;;;;9.27;3.42;;;;;;;13.80;100.00;100134.25;6110748;29;20119;-93
2023/08/08 06:21:13;;;;;;;;;;;;;;;13.70;100.00;100125.72;6110324;29;20063;-95
2023/08/08 06:24:22;;;;;;;5.53;3.70;;;;;;;13.76;100.00;100125.94;6121203;29;19926;-93
2023/08/08 06:27:52;;;;;;;6.05;4.20;;;;;;;13.69;100.00;100121.47;6099479;29;20130;-94
2023/08/08 06:31:24;;;;;;;5.45;4.10;;;;;;;13.80;100.00;100131.63;6011102;29;20057;-95
2023/08/08 06:34:32;;;;;;;5.78;4.20;;;;;;;13.88;100.00;100130.88;6016704;29;20053;-93
2023/08/08 06:37:34;;;;;;;6.05;4.63;;;;;;;14.03;100.00;100125.94;6048288;29;20642;-92
2023/08/08 06:40:37;;;;;;;5.05;4.05;;;;;;;14.25;100.00;100124.59;6025687;29;20612;-93
2023/08/08 06:43:47;;;;;;;5.25;4.30;;;;;;;14.38;100.00;100125.81;6030583;29;20056;-93
2023/08/08 06:46:49;;;;;;;6.88;4.05;;;;;;;14.41;100.00;100129.91;6049043;29;20053;-92
2023/08/08 06:49:51;;;;;;;8.23;4.75;;;;;;;14.38;100.00;100119.78;6049327;29;20602;-92
2023/08/08 06:52:58;;;;;;;6.93;4.50;;;;;;;14.35;100.00;100123.50;6032999;29;20056;-93
2023/08/08 06:56:07;;;;;;;4.93;3.90;;;;;;;14.44;100.00;100125.19;6046420;29;20091;-94
2023/08/08 06:59:52;;;;;;;;;;;;;;;;;;;;;
2023/08/08 07:03:13;;;;;;;5.60;3.40;;;;;;;14.51;100.00;100121.94;6107865;29;20060;-94
2023/08/08 07:06:24;;;;;;;;;;;;;;;14.59;100.00;100128.03;6112751;29;20705;-94
2023/08/08 07:09:30;;;;;;;3.80;3.00;;;;;;;14.65;100.00;100116.16;6130845;29;19927;-89
2023/08/08 07:12:33;;;;;;;6.82;3.40;;;;;;;14.76;100.00;100112.47;6130963;29;20058;-91
2023/08/08 07:15:37;;;;;;;4.60;3.05;;;;;;;15.03;100.00;100113.97;6118875;29;20040;-92
2023/08/08 07:18:39;;;;;;;7.53;3.45;;;;;;;15.23;100.00;100104.91;6103516;29;20051;-92
2023/08/08 07:21:44;;;;;;;6.22;3.15;;;;;;;15.65;100.00;100105.69;6124287;29;20062;-94
2023/08/08 07:24:47;;;;;;;6.47;3.22;;;;;;;15.73;100.00;100110.16;6123620;29;20055;-94
2023/08/08 07:28:14;;;;;;;5.95;3.00;;;;;;;15.44;100.00;100101.81;6114440;29;20052;-95
2023/08/08 07:31:17;;;;;;;4.68;2.95;;;;;;;15.41;100.00;100106.53;6111822;29;20119;-94
2023/08/08 07:34:32;;;;;;;5.15;2.80;;;;;;;15.38;100.00;100089.44;6096940;29;20597;-93
2023/08/08 07:37:43;;;;;;;5.38;2.63;;;;;;;15.24;100.00;100101.31;6117359;29;20073;-94
2023/08/08 07:41:02;;;;;;;7.57;3.33;;;;;;;15.37;100.00;100095.59;6117570;29;20114;-95
2023/08/08 07:44:11;;;;;;;4.03;2.30;;;;;;;15.76;100.00;100088.94;6110433;29;20063;-94
2023/08/08 07:47:22;;;;;;;5.70;2.63;;;;;;;15.88;100.00;100105.88;6111385;29;20402;-94
2023/08/08 07:50:29;;;;;;;3.50;2.67;;;;;;;15.73;100.00;100087.47;6114674;29;20498;-94
2023/08/08 07:53:42;;;;;;;4.47;2.30;;;;;;;15.68;100.00;100085.31;6115003;29;20051;-94
2023/08/08 07:56:51;;;;;;;4.28;2.28;;;;;;;15.77;100.00;100091.38;6092953;29;20051;-95
2023/08/08 08:00:04;;;;;;;4.03;2.10;;;;;;;15.84;100.00;100099.34;6100937;29;20250;-94
2023/08/08 08:03:17;;;;;;;3.05;1.80;;;;;;;15.89;100.00;100094.44;6114135;29;20091;-94
2023/08/08 08:06:22;;;;;;;3.78;1.80;;;;;;;15.83;100.00;100098.56;6131519;29;20036;-91
2023/08/08 08:09:34;;;;;;;3.22;1.90;;;;;;;15.96;100.00;100077.16;6112653;29;20079;-94
2023/08/08 08:12:44;;;;;;;;;;;;;;;16.12;100.00;100084.09;6115790;29;20043;-96
2023/08/08 08:16:05;;;;;;;5.18;1.95;;;;;;;16.12;100.00;100076.28;6112295;29;19922;-95
2023/08/08 08:19:38;;;;;;;4.75;1.77;;;;;;;16.12;100.00;100071.06;6102306;29;20506;-95
2023/08/08 08:22:45;;;;;;;3.03;1.50;;;;;;;16.10;100.00;100075.66;6133002;28;20052;-94
2023/08/08 08:25:50;;;;;;;2.50;1.65;;;;;;;16.06;100.00;100072.53;6101041;29;20044;-94
2023/08/08 08:28:53;;;;;;;3.17;1.58;;;;;;;15.98;100.00;100074.38;6114263;29;20517;-95
2023/08/08 08:31:59;;;;;;;2.38;1.52;;;;;;;16.19;100.00;100073.81;6127875;28;20051;-91
2023/08/08 08:35:08;;;;;;;4.00;1.30;;;;;;;16.36;100.00;100062.31;6104407;29;20136;-95
2023/08/08 08:38:13;;;;;;;2.78;1.73;;;;;;;16.60;100.00;100065.81;6109396;29;20148;-96
2023/08/08 08:41:20;;;;;;;2.70;1.70;;;;;;;17.06;100.00;100055.41;6093504;29;20048;-95
2023/08/08 08:44:29;;;;;;;4.38;1.65;;;;;;;17.01;100.00;100055.91;6096187;29;20040;-92
2023/08/08 08:47:36;;;;;;;3.30;1.65;;;;;;;16.98;100.00;100044.00;6111508;28;20040;-93
2023/08/08 08:50:49;;;;;;;;;;;;;;;;;;;;;
2023/08/08 08:53:57;;;;;;;5.00;2.10;;;;;;;17.08;100.00;100061.28;6123243;29;20051;-94
2023/08/08 08:57:05;;;;;;;8.73;2.95;;;;;;;16.25;100.00;100081.78;6099734;29;20695;-94
2023/08/08 09:00:08;;;;;;;4.68;2.55;;;;;;;15.17;100.00;100084.69;6115229;29;20044;-92
2023/08/08 09:03:13;;;;;;;5.72;2.95;;;;;;;14.74;100.00;100102.19;6115723;29;20048;-93
2023/08/08 09:06:16;;;;;;;6.38;3.38;;;;;;;14.78;100.00;100105.28;6090021;29;20047;-93
2023/08/08 09:09:21;;;;;;;5.72;3.03;;;;;;;14.63;100.00;100092.91;6096295;29;20518;-93
2023/08/08 09:12:24;;;;;;;4.63;3.50;;;;;;;14.21;100.00;100091.06;6110277;29;20184;-93
2023/08/08 09:15:30;;;;;;;8.32;3.67;;;;;;;14.20;100.00;100089.41;6113161;29;20048;-93
2023/08/08 09:18:33;;;;;;;7.22;3.80;;;;;;;14.68;100.00;100100.22;6114966;29;20494;-92
2023/08/08 09:21:35;;;;;;;5.93;4.38;;;;;;;15.24;100.00;100092.69;6124871;29;20052;-92
2023/08/08 09:24:41;;;;;;;4.28;3.42;;;;;;;15.77;100.00;100080.94;6113884;29;20565;-93
2023/08/08 09:27:44;;;;;;;5.45;3.60;;;;;;;16.24;100.00;100076.72;6110871;29;20637;-94
2023/08/08 09:30:46;;;;;;;7.63;3.90;;;;;;;16.50;100.00;100064.22;6125313;29;20413;-95
2023/08/08 09:33:51;;;;;;;6.03;3.72;;;;;;;17.01;100.00;100058.53;6119905;29;20067;-95
2023/08/08 09:37:05;;;;;;;6.55;2.90;;;;;;;17.14;100.00;100053.56;6128006;29;20048;-96
2023/08/08 09:40:20;;;;;;;;;;;;;;;;;;;;;
2023/08/08 09:43:39;;;;;;;;;;;;;;;17.36;100.00;100064.16;6149552;28;20052;-94
2023/08/08 09:47:43;;;;;;;6.63;2.47;;;;;;;17.64;100.00;100041.66;6410604;23;19933;-95
2023/08/08 09:54:30;;;;;;;5.78;3.30;;;;;;;17.07;100.00;100046.56;6231000;23;20038;-96
2023/08/08 09:57:39;;;;;;;6.32;3.45;;;;;;;17.14;100.00;100048.31;6187468;28;20047;-96
2023/08/08 10:01:09;;;;;;;;;;;;;;;17.29;100.00;100042.28;6173905;28;20051;-96
2023/08/08 10:05:05;;;;;;;;;;;;;;;;;;;;;
2023/08/08 10:12:44;;;;;;;5.03;3.05;;;;;;;18.00;100.00;100045.38;6566042;23;20054;-96
2023/08/08 10:21:55;;;;;;;4.15;2.53;;;;;;;18.55;100.00;100036.16;6261972;23;20034;-96
2023/08/08 10:25:52;;;;;;;3.85;2.58;;;;;;;17.97;100.00;100048.38;6083116;29;20067;-96
2023/08/08 10:30:12;;;;;;;3.42;2.10;;;;;;;17.55;100.00;100049.75;6031088;29;20146;-96
2023/08/08 10:34:21;;;;;;;6.30;2.58;;;;;;;17.69;100.00;100054.22;6025915;29;20065;-96
2023/08/08 10:37:53;;;;;;;4.22;2.40;;;;;;;18.03;100.00;100050.25;6043171;29;20049;-96
2023/08/08 10:45:52;;;;;;;4.50;1.52;;;;;;;18.17;100.00;100046.00;4478313;26;20401;-96
2023/08/08 10:49:14;;;;;;;3.40;1.65;;;;;;;18.20;100.00;100054.31;6174054;28;20051;-92
2023/08/08 10:53:22;;;;;;;2.60;1.63;;;;;;;17.87;100.00;100040.78;6170464;28;20058;-95
2023/08/08 10:56:31;;;;;;;2.75;1.65;;;;;;;17.55;100.00;100052.38;6163706;28;20145;-94
2023/08/08 10:59:45;;;;;;;4.88;1.90;;;;;;;17.48;100.00;100041.78;6167119;28;20090;-96
2023/08/08 11:03:15;;;;;;;5.57;2.20;;;;;;;17.93;100.00;100050.53;6078475;29;20128;-96
2023/08/08 11:06:21;;;;;;;3.90;2.10;;;;;;;18.36;100.00;100052.47;6082100;29;20060;-96
2023/08/08 11:13:40;;;;;;;5.47;1.98;;;;;;;19.17;100.00;100032.16;4434575;26;20055;-96
2023/08/08 11:17:53;;;;;;;;;;;;;;;;;;;;;
2023/08/08 11:21:19;;;;;;;3.60;2.38;;;;;;;19.37;100.00;100032.31;6119889;29;20058;-96
2023/08/08 11:25:03;;;;;;;2.33;1.80;;;;;;;19.53;100.00;100026.78;6143132;28;20051;-96
2023/08/08 11:28:53;;;;;;;3.92;1.50;;;;;;;19.50;100.00;100029.78;6136869;28;20060;-96
2023/08/08 11:32:07;;;;;;;3.72;1.80;;;;;;;19.80;100.00;100019.09;6127749;29;20094;-94
2023/08/08 11:35:22;;;;;;;5.05;1.63;;;;;;;20.01;100.00;100015.53;6126080;29;20047;-94
2023/08/08 11:38:24;;;;;;;2.67;1.50;;;;;;;19.70;100.00;100023.84;6124027;29;20934;-93
2023/08/08 11:41:40;;;;;;;3.58;1.80;;;;;;;19.00;100.00;100015.84;6141964;29;20055;-93
2023/08/08 11:44:43;;;;;;;3.13;1.52;;;;;;;18.86;100.00;100027.25;6133171;28;20044;-93
2023/08/08 11:47:54;;;;;;;4.05;1.52;;;;;;;18.93;100.00;100017.59;6114703;29;20051;-94
2023/08/08 11:51:08;;;;;;;4.20;1.20;;;;;;;19.02;100.00;100007.81;6123307;28;20057;-92
2023/08/08 11:54:10;;;;;;;4.35;1.30;;;;;;;18.99;100.00;100011.63;6155807;28;20050;-92
2023/08/08 11:57:18;;;;;;;2.70;1.35;;;;;;;19.28;100.00;100009.84;6165072;28;20133;-93
2023/08/08 12:00:38;;;;;;;3.47;1.83;;;;;;;19.28;100.00;100028.22;6159264;28;20039;-96
2023/08/08 12:03:47;;;;;;;2.53;1.55;;;;;;;19.25;100.00;100031.19;6168589;28;20043;-92
2023/08/08 12:07:03;;;;;;;4.30;1.60;;;;;;;19.32;100.00;100024.19;6167219;28;20125;-94
2023/08/08 12:10:22;;;;;;;2.75;1.40;;;;;;;19.35;100.00;100014.13;6166281;28;20535;-93
2023/08/08 12:13:28;;;;;;;2.78;1.13;;;;;;;19.42;100.00;100029.91;6163794;28;20047;-92
2023/08/08 12:16:36;;;;;;;3.78;1.30;;;;;;;19.29;100.00;100029.81;6154848;28;20783;-94
2023/08/08 12:19:47;;;;;;;2.47;1.35;;;;;;;18.93;100.00;100025.47;6155839;28;20047;-93
2023/08/08 12:22:52;;;;;;;2.08;1.23;;;;;;;19.20;100.00;100030.94;6184834;28;20050;-92
2023/08/08 12:25:55;;;;;;;1.52;1.30;;;;;;;19.15;100.00;100018.41;6171603;28;20117;-95
2023/08/08 12:29:00;;;;;;;2.20;1.38;;;;;;;19.41;100.00;100023.06;6151090;28;20497;-93
2023/08/08 12:32:07;;;;;;;4.15;1.27;;;;;;;19.34;100.00;100012.50;6187765;28;20122;-94
2023/08/08 12:35:20;;;;;;;2.33;1.40;;;;;;;19.53;100.00;100013.66;6174228;28;20412;-96
2023/08/08 12:38:22;;;;;;;3.50;1.52;;;;;;;19.64;100.00;100009.66;6155145;28;20054;-92
2023/08/08 12:41:25;;;;;;;2.03;1.42;;;;;;;20.04;100.00;100016.97;6166579;28;20057;-94
2023/08/08 12:44:30;;;;;;;2.97;1.30;;;;;;;20.34;100.00;100025.38;6166393;28;20039;-93
2023/08/08 12:47:52;;;;;;;8.98;1.70;;;;;;;20.27;100.00;100021.91;6168493;28;20117;-95
2023/08/08 12:50:54;;;;;;;3.83;1.30;;;;;;;19.93;100.00;100019.16;6162621;28;20644;-92
2023/08/08 12:53:59;;;;;;;2.85;1.20;;;;;;;19.35;100.00;100019.38;6170879;28;20053;-96
2023/08/08 12:57:20;;;;;;;3.10;1.65;;;;;;;18.77;100.00;100021.31;6157386;28;20102;-96
2023/08/08 13:00:27;;;;;;;2.55;1.10;;;;;;;17.90;100.00;100069.22;6174705;28;20386;-94
2023/08/08 13:03:33;;;;;;;3.15;0.90;;;;;;;17.33;100.00;100060.09;6162905;28;20065;-93
2023/08/08 13:06:47;;;;;;;2.05;1.00;;;;;;;17.00;100.00;100096.16;6168884;28;20158;-93
2023/08/08 13:09:58;;;;;;;3.13;0.77;;;;;;;16.03;100.00;100087.75;6169535;28;20392;-93
2023/08/08 13:13:28;;;;;;;0.73;0.60;;;;;;;15.92;100.00;100083.66;6169325;28;20039;-95
2023/08/08 13:16:37;;;;;;;2.80;0.63;;;;;;;16.43;100.00;100071.09;6168248;28;20039;-96
2023/08/08 13:20:08;;;;;;;1.35;0.65;;;;;;;17.09;100.00;100063.72;6162652;28;20125;-96
2023/08/08 13:24:35;;;;;;;2.40;0.77;;;;;;;17.83;100.00;100055.22;6177931;28;20521;-95
2023/08/08 13:28:23;;;;;;;1.33;0.70;;;;;;;18.84;100.00;100047.59;6084373;29;20108;-92
2023/08/08 13:36:48;;;;;;;1.65;0.82;;;;;;;20.17;100.00;100036.25;6072731;29;20463;-95
2023/08/08 13:45:02;;;;;;;1.00;0.77;;;;;;;20.47;100.00;100027.22;6100319;28;20053;-96
2023/08/08 13:49:10;;;;;;;1.98;0.98;;;;;;;20.70;100.00;100022.47;6077506;29;20108;-93
2023/08/08 13:53:39;;;;;;;2.45;0.90;;;;;;;20.23;100.00;100014.41;6078468;29;20112;-95
2023/08/08 13:57:27;;;;;;;3.05;1.10;;;;;;;19.28;100.00;100022.97;5996741;29;20541;-95
2023/08/08 14:00:34;;;;;;;2.65;0.85;;;;;;;18.37;100.00;100057.53;5976956;29;20043;-94
2023/08/08 14:03:40;;;;;;;3.75;1.20;;;;;;;16.64;100.00;100059.22;5979770;29;20050;-92
2023/08/08 14:06:42;;;;;;;3.55;1.23;;;;;;;16.02;100.00;100055.56;5980055;29;20560;-91
2023/08/08 14:09:47;;;;;;;3.20;1.67;;;;;;;15.86;100.00;100055.66;5979440;29;20066;-93
2023/08/08 14:12:50;;;;;;;2.58;1.08;;;;;;;15.79;100.00;100054.69;5978642;29;20054;-92
2023/08/08 14:16:00;;;;;;;;;;;;;;;16.07;100.00;100053.31;5960310;29;20047;-92
2023/08/08 14:19:03;;;;;;;4.03;1.27;;;;;;;16.26;100.00;100052.06;5989858;29;20035;-93
2023/08/08 14:22:06;;;;;;;3.45;1.25;;;;;;;16.82;100.00;100064.22;5968708;29;20586;-96
2023/08/08 14:25:09;;;;;;;4.32;1.20;;;;;;;17.74;100.00;100056.25;5975992;29;20125;-95
2023/08/08 14:28:12;;;;;;;2.72;1.10;;;;;;;18.58;100.00;100059.38;6121986;28;20206;-94
2023/08/08 14:31:17;;;;;;;1.52;0.80;;;;;;;19.37;100.00;100053.28;6147519;29;20043;-96
2023/08/08 14:34:37;;;;;;;3.13;0.90;;;;;;;19.12;100.00;100058.13;6144412;29;20046;-96
2023/08/08 14:53:35;;;;;;;1.10;0.98;;;;;;;17.33;100.00;100103.75;6109892;29;20134;-95
2023/08/08 14:57:12;;;;;;;3.10;0.80;;;;;;;17.07;100.00;100118.00;6098199;29;20051;-96
2023/08/08 15:00:48;;;;;;;2.25;1.10;;;;;;;16.33;100.00;100130.56;6054148;29;20140;-96
2023/08/08 15:03:56;;;;;;;1.17;0.65;;;;;;;15.54;100.00;100139.97;6052165;29;20047;-91
2023/08/08 15:07:06;;;;;;;0.82;0.77;;;;;;;15.16;100.00;100127.38;6063477;29;20419;-96
2023/08/08 15:10:32;;;;;;;;;;;;;;;14.97;100.00;100138.91;6065998;29;20542;-94
2023/08/08 15:13:46;;;;;;;1.20;0.65;;;;;;;14.98;100.00;100140.56;6059094;29;20013;-92
2023/08/08 15:16:53;;;;;;;0.82;0.70;;;;;;;15.11;100.00;100136.66;6090486;29;20227;-94
2023/08/08 15:19:56;;;;;;;1.17;0.85;;;;;;;15.21;100.00;100132.13;6098885;29;20044;-92
2023/08/08 15:22:58;;;;;;;0.77;0.70;;;;;;;15.32;100.00;100123.16;6098893;29;20437;-95
2023/08/08 15:26:01;;;;;;;3.35;0.80;;;;;;;15.57;100.00;100148.25;6115690;29;20520;-93
2023/08/08 15:29:03;;;;;;;0.80;0.70;;;;;;;15.66;100.00;100141.28;6085346;29;20570;-95
2023/08/08 15:32:08;;;;;;;1.83;0.88;;;;;;;15.83;100.00;100142.13;6113279;29;20118;-94